Time;durP1;ratioP1;P1;durP2;ratioP2;P2;SDS_P1;SDS_P2;PMS_P1;PMS_P2;Temp;Humidity;BMP_temperature;BMP_pressure;BME280_temperature;BME280_humidity;BME280_pressure;Samples;Min_cycle;Max_cycle;Signal;HPM_P1;HPM_P2
2022/12/02 00:00:21;;;;;;;87.27;30.63;;;;;;;1.96;97.81;102965.03;4992511;28;20733;-73
2022/12/02 00:02:47;;;;;;;88.23;30.73;;;;;;;1.95;97.39;102968.31;4990981;28;20213;-74
2022/12/02 00:05:17;;;;;;;85.70;30.23;;;;;;;1.93;98.21;102968.94;4991157;28;20199;-74
2022/12/02 00:07:44;;;;;;;89.37;31.33;;;;;;;1.95;97.73;102964.88;4992261;28;20219;-75
2022/12/02 00:10:29;;;;;;;80.53;30.80;;;;;;;1.94;98.03;102961.50;4992289;28;20211;-73
2022/12/02 00:13:06;;;;;;;79.30;30.53;;;;;;;1.93;98.08;102963.88;4984005;28;20331;-74
2022/12/02 00:15:41;;;;;;;89.97;31.73;;;;;;;1.92;96.85;102955.41;4988774;28;20200;-75
2022/12/02 00:18:09;;;;;;;87.10;32.00;;;;;;;1.91;96.96;102955.28;4989568;28;20187;-73
2022/12/02 00:20:35;;;;;;;85.03;31.30;;;;;;;1.91;97.60;102956.16;4991558;28;20215;-74
2022/12/02 00:23:00;;;;;;;75.63;30.30;;;;;;;1.88;97.54;102948.31;4987790;28;20345;-73
2022/12/02 00:25:26;;;;;;;82.23;31.63;;;;;;;1.90;97.65;102953.50;4991446;28;20229;-75
2022/12/02 00:27:51;;;;;;;74.57;30.10;;;;;;;1.90;97.80;102945.94;4990946;28;20195;-74
2022/12/02 00:30:17;;;;;;;89.60;31.63;;;;;;;1.90;96.89;102946.81;4989587;28;20222;-73
2022/12/02 00:32:42;;;;;;;80.87;31.27;;;;;;;1.89;97.07;102949.22;4988737;28;20196;-75
2022/12/02 00:35:08;;;;;;;90.47;32.43;;;;;;;1.92;97.54;102944.44;4989331;28;20183;-75
2022/12/02 00:37:33;;;;;;;94.87;31.93;;;;;;;1.92;97.73;102946.97;4987890;28;20752;-73
2022/12/02 00:39:58;;;;;;;90.43;32.00;;;;;;;1.94;96.95;102943.81;4987233;28;20209;-74
2022/12/02 00:42:24;;;;;;;81.93;32.37;;;;;;;1.95;96.75;102957.31;4988366;28;20218;-75
2022/12/02 00:47:33;;;;;;;92.93;34.00;;;;;;;1.95;97.25;102950.63;4991096;28;20204;-74
2022/12/02 00:49:59;;;;;;;94.60;34.40;;;;;;;1.89;97.02;102944.16;4989616;28;20218;-74
2022/12/02 00:52:24;;;;;;;92.80;33.87;;;;;;;1.92;97.29;102947.84;4995531;28;20222;-75
2022/12/02 00:54:49;;;;;;;97.27;36.20;;;;;;;1.94;97.38;102951.41;4976566;28;20635;-74
2022/12/02 00:57:16;;;;;;;95.37;35.10;;;;;;;1.91;97.22;102941.00;4971821;28;20187;-75
2022/12/02 00:59:41;;;;;;;98.53;32.77;;;;;;;1.88;97.82;102934.81;4980974;28;20196;-75
2022/12/02 01:02:07;;;;;;;96.10;33.47;;;;;;;1.89;98.21;102929.00;4989768;28;20282;-74
2022/12/02 01:04:32;;;;;;;98.57;34.23;;;;;;;1.86;98.09;102927.09;4989583;28;20203;-74
2022/12/02 01:06:57;;;;;;;100.83;35.87;;;;;;;1.86;97.52;102929.63;4989287;28;20215;-75
2022/12/02 01:09:23;;;;;;;103.23;35.87;;;;;;;1.87;97.97;102930.50;4984489;28;20200;-74
2022/12/02 01:11:48;;;;;;;102.80;35.83;;;;;;;1.86;97.76;102924.59;4985487;28;20266;-74
2022/12/02 01:14:14;;;;;;;108.50;35.00;;;;;;;1.86;98.58;102924.59;4989980;28;20192;-75
2022/12/02 01:16:39;;;;;;;103.93;35.13;;;;;;;1.87;97.93;102935.53;4983727;28;20191;-74
2022/12/02 01:19:04;;;;;;;107.30;35.47;;;;;;;1.87;98.68;102928.88;4985546;28;20231;-74
2022/12/02 01:21:30;;;;;;;103.23;35.77;;;;;;;1.91;98.54;102932.53;4983624;28;20212;-75
2022/12/02 01:23:55;;;;;;;100.40;36.83;;;;;;;1.89;98.58;102919.78;4985692;28;20215;-74
2022/12/02 01:26:21;;;;;;;103.43;36.63;;;;;;;1.89;98.60;102913.84;4985631;28;20628;-73
2022/12/02 01:28:46;;;;;;;105.60;36.63;;;;;;;1.86;98.88;102919.53;4984827;28;20286;-74
2022/12/02 01:31:13;;;;;;;110.90;39.73;;;;;;;1.85;97.75;102912.72;4982887;28;20683;-74
2022/12/02 01:33:39;;;;;;;104.17;36.83;;;;;;;1.83;98.36;102914.19;4979685;28;20188;-74
2022/12/02 01:36:05;;;;;;;105.07;37.13;;;;;;;1.84;98.01;102912.56;5004625;28;20554;-75
2022/12/02 01:38:31;;;;;;;107.57;38.57;;;;;;;1.84;98.00;102915.97;5004642;28;21014;-74
2022/12/02 01:40:57;;;;;;;104.27;37.40;;;;;;;1.86;98.01;102909.44;4989104;28;20311;-74
2022/12/02 01:43:22;;;;;;;98.00;35.40;;;;;;;1.86;98.19;102906.91;4987811;28;20220;-74
2022/12/02 01:45:48;;;;;;;101.17;38.13;;;;;;;1.90;98.21;102908.94;4979657;28;20216;-73
2022/12/02 01:48:13;;;;;;;101.30;36.97;;;;;;;1.88;97.66;102907.91;4988673;28;20191;-72
2022/12/02 01:50:39;;;;;;;100.53;37.97;;;;;;;1.88;98.27;102902.84;4986213;28;20311;-75
2022/12/02 01:53:05;;;;;;;102.00;38.37;;;;;;;1.92;98.47;102904.91;4987467;28;20195;-74
2022/12/02 01:55:31;;;;;;;103.23;36.63;;;;;;;1.91;98.06;102903.13;4985861;28;20213;-73
2022/12/02 01:57:57;;;;;;;102.77;36.50;;;;;;;1.91;98.00;102902.25;4982049;28;20219;-74
2022/12/02 02:00:23;;;;;;;95.60;36.53;;;;;;;1.90;98.47;102905.53;4988135;28;20200;-75
2022/12/02 02:02:49;;;;;;;90.50;36.10;;;;;;;1.89;97.59;102904.63;4984504;28;20276;-75
2022/12/02 02:05:19;;;;;;;93.23;35.03;;;;;;;1.89;97.52;102901.22;4989746;28;20204;-74
2022/12/02 02:07:49;;;;;;;94.30;36.80;;;;;;;1.91;97.55;102904.75;4993459;28;20673;-74
2022/12/02 02:10:15;;;;;;;101.47;37.90;;;;;;;1.90;97.18;102900.47;5003363;28;20243;-74
2022/12/02 02:12:44;;;;;;;89.03;35.00;;;;;;;1.91;98.21;102900.63;4985458;28;20208;-73
2022/12/02 02:15:11;;;;;;;81.37;32.80;;;;;;;1.91;97.88;102898.09;4988814;28;20635;-75
2022/12/02 02:17:37;;;;;;;88.13;34.63;;;;;;;1.88;97.69;102899.47;4988475;28;20214;-73
2022/12/02 02:20:05;;;;;;;87.93;34.60;;;;;;;1.87;97.69;102897.66;4972764;28;20242;-72
2022/12/02 02:22:36;;;;;;;85.17;34.73;;;;;;;1.90;98.22;102895.41;4986886;28;20198;-74
2022/12/02 02:25:07;;;;;;;82.90;34.63;;;;;;;1.89;98.42;102892.00;4988338;28;20195;-74
2022/12/02 02:27:33;;;;;;;81.30;33.70;;;;;;;1.89;97.78;102893.66;4987101;28;20548;-74
2022/12/02 02:29:59;;;;;;;81.80;35.33;;;;;;;1.91;97.85;102887.97;4987480;28;20227;-74
2022/12/02 02:32:25;;;;;;;81.00;33.33;;;;;;;1.91;97.66;102892.13;4988572;28;20188;-73
2022/12/02 02:34:50;;;;;;;80.77;34.47;;;;;;;1.91;97.84;102887.97;4987852;28;20195;-74
2022/12/02 02:37:16;;;;;;;78.50;34.03;;;;;;;1.90;97.14;102888.75;4988092;28;20180;-75
2022/12/02 02:39:41;;;;;;;80.63;35.00;;;;;;;1.91;97.78;102892.13;4986423;28;20581;-74
2022/12/02 02:42:07;;;;;;;77.10;32.90;;;;;;;1.91;98.25;102892.13;4987610;28;20195;-73
2022/12/02 02:44:33;;;;;;;75.50;32.27;;;;;;;1.90;97.12;102891.28;4986808;28;20284;-75
2022/12/02 02:46:58;;;;;;;78.20;33.30;;;;;;;1.89;97.44;102884.41;4983655;28;20689;-75
2022/12/02 02:49:25;;;;;;;75.97;32.90;;;;;;;1.88;97.73;102880.13;4972315;28;20191;-75
2022/12/02 02:51:50;;;;;;;76.73;34.60;;;;;;;1.86;97.12;102883.28;4987762;28;20226;-74
2022/12/02 02:54:16;;;;;;;74.60;33.70;;;;;;;1.85;97.80;102874.84;4985290;28;20184;-76
2022/12/02 02:56:42;;;;;;;78.93;33.80;;;;;;;1.87;97.47;102885.03;4987407;28;20195;-73
2022/12/02 02:59:12;;;;;;;70.63;33.53;;;;;;;1.85;97.71;102879.88;4987964;28;20195;-71
2022/12/02 03:01:38;;;;;;;73.53;32.43;;;;;;;1.85;98.02;102884.03;4984964;28;20234;-74
2022/12/02 03:04:09;;;;;;;79.33;33.53;;;;;;;1.86;97.97;102880.75;4987989;28;20713;-73
2022/12/02 03:06:37;;;;;;;71.10;33.13;;;;;;;1.84;97.79;102883.13;4984943;28;20211;-75
2022/12/02 03:09:05;;;;;;;75.73;33.20;;;;;;;1.85;97.77;102879.88;4988022;28;20644;-75
2022/12/02 03:11:31;;;;;;;79.33;35.40;;;;;;;1.87;97.47;102874.94;4988379;28;20274;-74
2022/12/02 03:13:59;;;;;;;70.97;32.33;;;;;;;1.86;98.27;102879.13;4988307;28;20199;-75
2022/12/02 03:16:25;;;;;;;73.80;32.17;;;;;;;1.85;98.41;102876.47;4987910;28;20196;-72
2022/12/02 03:18:52;;;;;;;74.87;32.83;;;;;;;1.84;98.70;102873.03;4989122;28;20203;-73
2022/12/02 03:21:19;;;;;;;77.63;33.87;;;;;;;1.87;98.54;102878.38;4988239;28;20259;-75
2022/12/02 03:23:47;;;;;;;74.93;33.27;;;;;;;1.88;98.00;102876.75;4992956;28;20211;-74
2022/12/02 03:26:14;;;;;;;74.97;32.33;;;;;;;1.87;99.27;102869.88;4990321;28;20234;-72
2022/12/02 03:28:40;;;;;;;76.27;34.23;;;;;;;1.84;98.46;102873.03;4989443;28;20184;-74
2022/12/02 03:31:06;;;;;;;73.57;33.00;;;;;;;1.85;98.86;102873.94;4994644;28;20259;-74
2022/12/02 03:33:33;;;;;;;73.63;34.03;;;;;;;1.84;98.86;102878.09;4989705;28;20782;-74
2022/12/02 03:35:58;;;;;;;68.53;32.90;;;;;;;1.83;99.00;102872.94;4989936;28;20671;-74
2022/12/02 03:38:25;;;;;;;74.00;32.73;;;;;;;1.83;98.59;102868.75;4992504;28;20192;-73
2022/12/02 03:40:51;;;;;;;73.73;33.37;;;;;;;1.84;99.09;102873.03;4991082;28;20696;-75
2022/12/02 03:43:16;;;;;;;70.40;32.13;;;;;;;1.82;98.35;102873.66;4992331;28;20195;-74
2022/12/02 03:45:42;;;;;;;71.77;33.93;;;;;;;1.81;98.83;102864.31;4992299;28;20247;-73
2022/12/02 03:48:09;;;;;;;76.30;33.70;;;;;;;1.81;98.90;102862.69;4992567;28;20204;-74
2022/12/02 03:50:35;;;;;;;69.93;32.33;;;;;;;1.80;98.81;102860.94;4992286;28;20214;-74
2022/12/02 03:53:02;;;;;;;66.17;32.10;;;;;;;1.79;99.17;102869.22;4984416;28;20621;-75
2022/12/02 03:55:27;;;;;;;71.57;33.23;;;;;;;1.79;99.72;102859.13;4990185;28;20204;-74
2022/12/02 03:57:53;;;;;;;69.20;31.77;;;;;;;1.80;99.21;102865.09;4991497;28;20191;-74
2022/12/02 04:00:19;;;;;;;68.13;31.67;;;;;;;1.75;99.43;102862.16;4991683;28;20214;-74
2022/12/02 04:02:44;;;;;;;70.10;33.70;;;;;;;1.80;99.48;102863.47;4988189;28;20199;-74
2022/12/02 04:05:09;;;;;;;71.13;32.47;;;;;;;1.77;99.44;102859.75;4990999;28;20238;-75
2022/12/02 04:07:35;;;;;;;75.43;33.70;;;;;;;1.77;100.00;102858.13;4991633;28;20781;-74
2022/12/02 04:10:01;;;;;;;68.87;32.20;;;;;;;1.79;99.51;102864.19;4991204;28;20207;-74
2022/12/02 04:12:26;;;;;;;66.67;32.27;;;;;;;1.78;99.99;102861.53;4990896;28;20564;-74
2022/12/02 04:14:52;;;;;;;70.07;32.47;;;;;;;1.80;99.30;102862.56;4992094;28;20226;-74
2022/12/02 04:17:17;;;;;;;70.60;33.37;;;;;;;1.78;99.63;102856.47;4991898;28;20275;-74
2022/12/02 04:19:42;;;;;;;70.20;33.03;;;;;;;1.77;100.00;102858.13;4990342;28;20192;-72
2022/12/02 04:22:08;;;;;;;72.47;33.50;;;;;;;1.77;99.62;102859.75;4990191;28;20716;-74
2022/12/02 04:24:33;;;;;;;75.00;34.17;;;;;;;1.76;99.88;102858.00;4992022;28;20192;-74
2022/12/02 04:26:59;;;;;;;66.20;32.27;;;;;;;1.74;100.00;102859.53;4991911;28;20211;-74
2022/12/02 04:29:24;;;;;;;70.17;34.50;;;;;;;1.76;100.00;102860.53;4990679;28;20195;-74
2022/12/02 04:31:50;;;;;;;71.23;33.33;;;;;;;1.80;100.00;102865.09;4991687;28;20306;-74
2022/12/02 04:34:15;;;;;;;75.93;34.10;;;;;;;1.75;99.35;102854.56;4995181;28;20187;-75
2022/12/02 04:36:41;;;;;;;65.50;32.27;;;;;;;1.76;100.00;102855.47;4990483;28;20192;-73
2022/12/02 04:39:06;;;;;;;68.97;32.30;;;;;;;1.74;100.00;102855.34;4990631;28;20326;-75
2022/12/02 04:41:31;;;;;;;71.07;33.90;;;;;;;1.77;99.23;102852.19;4990164;28;20281;-74
2022/12/02 04:43:57;;;;;;;70.17;32.60;;;;;;;1.75;100.00;102853.72;4991616;28;20192;-75
2022/12/02 04:46:22;;;;;;;63.80;31.03;;;;;;;1.73;99.73;102848.53;4990081;28;20239;-74
2022/12/02 04:48:48;;;;;;;62.83;31.73;;;;;;;1.74;99.59;102850.28;4991110;28;20728;-72
2022/12/02 04:51:13;;;;;;;68.80;32.73;;;;;;;1.75;99.98;102848.66;4990755;28;20215;-75
2022/12/02 04:53:39;;;;;;;67.90;32.20;;;;;;;1.74;100.00;102850.28;4988287;28;20224;-74
2022/12/02 04:56:04;;;;;;;66.50;31.17;;;;;;;1.75;99.86;102847.00;4990243;28;20188;-72
2022/12/02 04:58:30;;;;;;;60.77;29.63;;;;;;;1.77;99.90;102853.09;4985648;28;20266;-74
2022/12/02 05:00:55;;;;;;;63.77;30.63;;;;;;;1.73;99.74;102843.47;4987354;28;20216;-74
2022/12/02 05:03:21;;;;;;;62.10;30.53;;;;;;;1.75;99.98;102836.03;4991068;28;20745;-74
2022/12/02 05:05:46;;;;;;;64.47;31.43;;;;;;;1.78;99.61;102838.81;4990792;28;20766;-73
2022/12/02 05:08:11;;;;;;;58.17;30.83;;;;;;;1.79;100.00;102846.50;4990309;28;20195;-74
2022/12/02 05:10:37;;;;;;;58.43;27.97;;;;;;;1.79;99.63;102845.66;4973708;28;20215;-74
2022/12/02 05:13:02;;;;;;;64.30;31.40;;;;;;;1.80;99.86;102843.25;4989165;28;20183;-72
2022/12/02 05:15:28;;;;;;;61.07;31.37;;;;;;;1.82;99.36;102846.78;4991093;28;20183;-74
2022/12/02 05:17:53;;;;;;;58.47;30.47;;;;;;;1.82;99.05;102850.94;4989626;28;20236;-73
2022/12/02 05:20:18;;;;;;;58.40;28.80;;;;;;;1.82;99.59;102853.47;4990850;28;20215;-74
2022/12/02 05:22:44;;;;;;;59.73;29.27;;;;;;;1.80;99.33;102863.47;4989298;28;20660;-74
2022/12/02 05:25:10;;;;;;;56.40;29.30;;;;;;;1.82;99.58;102861.94;4973688;28;20234;-75
2022/12/02 05:27:36;;;;;;;59.73;29.57;;;;;;;1.80;99.72;102857.50;4987443;28;20215;-73
2022/12/02 05:30:03;;;;;;;59.20;29.43;;;;;;;1.79;100.00;102859.13;4987999;28;20292;-74
2022/12/02 05:32:29;;;;;;;59.67;29.97;;;;;;;1.81;99.80;102860.19;4988249;28;20191;-75
2022/12/02 05:34:54;;;;;;;57.47;28.87;;;;;;;1.81;99.68;102864.31;4984665;28;20275;-73
2022/12/02 05:37:19;;;;;;;59.17;30.27;;;;;;;1.81;99.67;102864.31;4984411;28;20195;-75
2022/12/02 05:39:45;;;;;;;61.53;31.67;;;;;;;1.80;100.00;102867.59;4985092;28;20533;-74
2022/12/02 05:42:13;;;;;;;66.03;31.43;;;;;;;1.81;100.00;102864.31;4989191;28;20200;-74
2022/12/02 05:44:41;;;;;;;63.67;30.73;;;;;;;1.79;100.00;102865.84;4980705;28;20287;-74
2022/12/02 05:47:15;;;;;;;63.10;30.80;;;;;;;1.81;100.00;102867.75;4988960;28;20207;-75
2022/12/02 05:49:43;;;;;;;60.77;29.27;;;;;;;1.80;100.00;102863.47;4980077;28;20199;-74
2022/12/02 05:52:25;;;;;;;66.63;31.00;;;;;;;1.78;100.00;102862.41;4983501;28;20611;-74
2022/12/02 05:54:57;;;;;;;58.83;29.23;;;;;;;1.76;100.00;102853.84;4988357;28;20195;-74
2022/12/02 05:57:29;;;;;;;63.20;30.67;;;;;;;1.79;100.00;102859.13;4988689;28;20655;-74
2022/12/02 06:00:09;;;;;;;57.97;28.70;;;;;;;1.80;100.00;102860.94;4989419;28;20706;-74
2022/12/02 06:02:40;;;;;;;57.33;30.00;;;;;;;1.79;99.81;102859.13;4987791;28;20787;-74
2022/12/02 06:05:41;;;;;;;56.73;28.80;;;;;;;1.80;100.00;102873.56;4985426;28;20211;-75
2022/12/02 06:08:23;;;;;;;58.77;28.97;;;;;;;1.79;100.00;102861.66;4980879;28;20203;-75
2022/12/02 06:11:28;;;;;;;59.40;28.70;;;;;;;1.80;100.00;102872.66;4986041;28;20234;-73
2022/12/02 06:14:00;;;;;;;59.47;29.77;;;;;;;1.75;100.00;102868.84;4972529;28;20215;-75
2022/12/02 06:16:30;;;;;;;61.20;30.93;;;;;;;1.75;100.00;102872.25;4984322;28;20191;-75
2022/12/02 06:18:58;;;;;;;62.33;30.00;;;;;;;1.74;100.00;102867.09;4985126;28;20196;-74
2022/12/02 06:21:24;;;;;;;62.97;30.47;;;;;;;1.76;100.00;102871.53;4985437;28;20222;-75
2022/12/02 06:23:53;;;;;;;63.67;30.33;;;;;;;1.71;100.00;102872.75;4981513;28;20200;-74
2022/12/02 06:26:20;;;;;;;58.07;28.97;;;;;;;1.73;99.79;102875.38;4984066;28;20855;-74
2022/12/02 06:29:00;;;;;;;60.67;29.23;;;;;;;1.73;100.00;102876.28;4964401;28;20327;-74
2022/12/02 06:31:33;;;;;;;60.43;29.93;;;;;;;1.74;100.00;102877.19;4983671;28;20210;-74
2022/12/02 06:34:03;;;;;;;61.77;30.10;;;;;;;1.72;100.00;102874.53;4982584;28;20522;-74
2022/12/02 06:36:32;;;;;;;64.13;29.67;;;;;;;1.76;100.00;102876.56;4983085;28;20187;-75
2022/12/02 06:39:19;;;;;;;62.93;31.37;;;;;;;1.78;100.00;102876.66;4989978;28;20191;-74
2022/12/02 06:41:44;;;;;;;65.87;30.33;;;;;;;1.78;100.00;102875.03;4987097;28;20203;-75
2022/12/02 06:47:33;;;;;;;64.07;30.30;;;;;;;1.82;100.00;102877.09;4988238;28;20278;-75
2022/12/02 06:50:05;;;;;;;65.70;30.50;;;;;;;1.85;99.57;102879.00;4987644;28;20358;-74
2022/12/02 06:52:34;;;;;;;64.87;30.63;;;;;;;1.82;100.00;102882.13;4985872;28;20195;-73
2022/12/02 06:55:00;;;;;;;71.77;30.07;;;;;;;1.79;99.49;102871.75;4986174;28;20188;-75
2022/12/02 06:57:26;;;;;;;69.50;31.50;;;;;;;1.81;100.00;102874.44;4993040;28;20741;-73
2022/12/02 06:59:52;;;;;;;75.77;33.07;;;;;;;1.80;100.00;102878.59;4988681;28;20645;-73
2022/12/02 07:02:30;;;;;;;76.47;32.80;;;;;;;1.82;100.00;102879.63;4993838;28;20219;-74
2022/12/02 07:04:57;;;;;;;66.67;30.97;;;;;;;1.81;100.00;102882.00;4991918;28;20200;-74
2022/12/02 07:07:23;;;;;;;79.10;30.97;;;;;;;1.83;100.00;102883.03;4993411;28;20587;-75
2022/12/02 07:09:59;;;;;;;80.40;32.93;;;;;;;1.84;100.00;102882.28;4993319;28;20279;-74
2022/12/02 07:12:34;;;;;;;74.33;33.13;;;;;;;1.83;99.83;102886.44;4988969;28;20278;-73
2022/12/02 07:15:09;;;;;;;68.93;31.03;;;;;;;1.82;100.00;102888.81;4990768;28;20198;-74
2022/12/02 07:17:41;;;;;;;72.13;32.07;;;;;;;1.85;99.94;102884.94;4993308;28;20270;-74
2022/12/02 07:20:08;;;;;;;68.57;31.27;;;;;;;1.85;100.00;102882.41;4990462;28;20219;-74
2022/12/02 07:22:37;;;;;;;75.87;32.37;;;;;;;1.86;100.00;102886.69;4991241;28;20184;-73
2022/12/02 07:25:08;;;;;;;73.40;31.83;;;;;;;1.87;100.00;102882.53;4992110;28;20179;-73
2022/12/02 07:27:38;;;;;;;68.67;31.40;;;;;;;1.86;100.00;102885.81;4991780;28;20286;-73
2022/12/02 07:30:21;;;;;;;74.13;31.73;;;;;;;1.88;100.00;102887.72;4988150;28;20685;-72
2022/12/02 07:32:47;;;;;;;71.70;31.17;;;;;;;1.89;100.00;102876.84;4988126;28;20203;-74
2022/12/02 07:35:12;;;;;;;73.40;32.47;;;;;;;1.88;100.00;102876.75;4991431;28;20187;-74
2022/12/02 07:37:38;;;;;;;75.47;31.00;;;;;;;1.91;100.00;102887.09;4992183;28;20187;-73
2022/12/02 07:40:04;;;;;;;69.40;30.60;;;;;;;1.93;100.00;102885.59;4991605;28;20215;-74
2022/12/02 07:42:29;;;;;;;66.73;30.80;;;;;;;1.93;100.00;102885.59;4991919;28;20219;-75
2022/12/02 07:44:55;;;;;;;69.10;30.10;;;;;;;1.95;99.80;102887.50;4991981;28;20219;-74
2022/12/02 07:47:20;;;;;;;70.70;30.57;;;;;;;1.95;100.00;102892.56;4991153;28;20204;-73
2022/12/02 07:49:46;;;;;;;75.17;31.57;;;;;;;1.95;100.00;102887.50;4989504;28;20198;-74
2022/12/02 07:52:11;;;;;;;70.27;31.73;;;;;;;1.95;99.64;102884.06;4991883;28;20179;-74
2022/12/02 07:54:36;;;;;;;67.23;30.67;;;;;;;1.96;99.78;102889.25;4992304;28;20187;-72
2022/12/02 07:57:02;;;;;;;70.33;31.17;;;;;;;1.98;100.00;102892.78;4986478;28;20187;-74
2022/12/02 07:59:27;;;;;;;71.67;30.90;;;;;;;2.01;100.00;102897.22;4992165;28;20187;-74
2022/12/02 08:01:53;;;;;;;75.70;32.37;;;;;;;1.98;99.91;102887.75;4985234;28;20300;-71
2022/12/02 08:04:18;;;;;;;70.40;29.90;;;;;;;2.02;99.51;102886.38;4991752;28;20227;-74
2022/12/02 08:06:44;;;;;;;72.57;31.00;;;;;;;2.06;99.63;102893.47;4991275;28;20310;-73
2022/12/02 08:09:09;;;;;;;77.30;33.23;;;;;;;2.07;99.53;102895.25;4990388;28;20352;-74
2022/12/02 08:11:35;;;;;;;69.67;30.77;;;;;;;2.09;99.81;102896.25;4989848;28;20693;-72
2022/12/02 08:14:00;;;;;;;70.50;31.60;;;;;;;2.09;99.97;102891.19;4991623;28;20847;-74
2022/12/02 08:16:26;;;;;;;64.77;29.83;;;;;;;2.09;100.00;102893.72;4991796;28;20616;-72
2022/12/02 08:18:51;;;;;;;78.53;31.80;;;;;;;2.11;99.11;102895.63;4991220;28;20746;-73
2022/12/02 08:21:17;;;;;;;70.07;30.50;;;;;;;2.16;99.07;102893.50;4986367;28;20716;-74
2022/12/02 08:23:42;;;;;;;69.93;30.67;;;;;;;2.17;99.33;102888.59;4988013;28;20703;-72
2022/12/02 08:26:08;;;;;;;71.30;31.27;;;;;;;2.20;98.97;102891.34;4993655;28;20278;-72
2022/12/02 08:28:33;;;;;;;72.80;30.23;;;;;;;2.21;99.94;102889.72;4991933;28;20219;-73
2022/12/02 08:30:59;;;;;;;74.20;32.00;;;;;;;2.22;99.93;102889.88;4991239;28;20219;-73
2022/12/02 08:33:24;;;;;;;70.27;30.77;;;;;;;2.20;99.37;102893.88;4991206;28;20202;-74
2022/12/02 08:35:50;;;;;;;72.33;30.17;;;;;;;2.20;99.22;102898.94;4991318;28;20207;-72
2022/12/02 08:38:15;;;;;;;72.13;31.77;;;;;;;2.20;99.79;102895.53;4985585;28;20702;-72
2022/12/02 08:40:40;;;;;;;74.70;31.90;;;;;;;2.19;98.83;102904.75;4986770;28;20292;-74
2022/12/02 08:43:06;;;;;;;79.67;32.37;;;;;;;2.20;99.73;102906.50;4990007;28;20211;-73
2022/12/02 08:45:31;;;;;;;70.90;31.27;;;;;;;2.21;99.06;102903.22;4990293;28;20740;-74
2022/12/02 08:47:57;;;;;;;75.23;32.37;;;;;;;2.24;99.74;102900.97;4985960;28;20211;-74
2022/12/02 08:50:23;;;;;;;75.33;31.87;;;;;;;2.26;98.63;102896.06;4984134;28;20708;-73
2022/12/02 08:52:48;;;;;;;76.23;31.60;;;;;;;2.31;98.46;102903.28;4981135;28;20196;-73
2022/12/02 08:55:14;;;;;;;72.37;31.50;;;;;;;2.34;99.34;102902.66;4988854;28;20206;-74
2022/12/02 08:57:39;;;;;;;77.07;32.93;;;;;;;2.34;98.84;102906.03;4987985;28;20199;-73
2022/12/02 09:00:07;;;;;;;78.07;32.77;;;;;;;2.34;98.60;102906.03;4984553;28;20305;-73
2022/12/02 09:02:33;;;;;;;75.73;33.30;;;;;;;2.36;98.03;102914.66;4983233;28;20322;-74
2022/12/02 09:04:58;;;;;;;70.90;31.97;;;;;;;2.33;98.39;102914.38;4987143;28;20198;-74
2022/12/02 09:07:24;;;;;;;80.00;32.67;;;;;;;2.36;98.31;102916.28;4987414;28;20191;-73
2022/12/02 09:09:49;;;;;;;79.83;32.93;;;;;;;2.35;97.78;102917.06;4987076;28;20657;-72
2022/12/02 09:12:14;;;;;;;84.53;33.53;;;;;;;2.37;98.04;102913.91;4987573;28;20204;-74
2022/12/02 09:14:40;;;;;;;67.57;30.80;;;;;;;2.33;98.10;102916.00;4981854;28;20286;-74
2022/12/02 09:17:05;;;;;;;73.77;32.27;;;;;;;2.32;98.62;102917.69;4985911;28;20180;-73
2022/12/02 09:19:31;;;;;;;78.90;33.10;;;;;;;2.36;98.76;102922.25;4985259;28;20199;-73
2022/12/02 09:21:56;;;;;;;76.10;30.70;;;;;;;2.42;98.04;102921.84;4988793;28;20200;-74
2022/12/02 09:24:22;;;;;;;80.50;33.77;;;;;;;2.41;98.45;102928.56;4988954;28;20200;-74
2022/12/02 09:26:47;;;;;;;73.77;31.57;;;;;;;2.39;97.77;102930.06;4989005;28;20216;-74
2022/12/02 09:29:13;;;;;;;78.43;33.63;;;;;;;2.42;98.50;102916.78;4989086;28;20186;-74
2022/12/02 09:31:38;;;;;;;72.83;30.87;;;;;;;2.47;98.13;102924.03;4986784;28;20244;-74
2022/12/02 09:34:04;;;;;;;79.80;31.50;;;;;;;2.51;97.86;102921.00;4987236;28;20250;-72
2022/12/02 09:36:29;;;;;;;75.27;31.73;;;;;;;2.54;98.22;102921.28;4990016;28;20261;-74
2022/12/02 09:38:54;;;;;;;66.53;31.13;;;;;;;2.52;97.64;102921.91;4986898;28;20195;-74
2022/12/02 09:41:20;;;;;;;71.63;29.60;;;;;;;2.52;97.54;102932.88;4988105;28;20258;-73
2022/12/02 09:43:46;;;;;;;68.17;31.83;;;;;;;2.53;98.15;102931.25;4987099;28;20286;-74
2022/12/02 09:46:11;;;;;;;71.63;30.93;;;;;;;2.55;97.67;102928.09;4989726;28;20208;-74
2022/12/02 09:48:37;;;;;;;69.27;30.53;;;;;;;2.57;97.12;102925.69;4989326;28;20192;-74
2022/12/02 09:51:02;;;;;;;77.20;32.53;;;;;;;2.56;97.44;102929.84;4985640;28;20215;-72
2022/12/02 09:53:32;;;;;;;75.57;31.77;;;;;;;2.54;98.04;102931.38;4988153;28;20199;-73
2022/12/02 09:55:58;;;;;;;72.43;32.70;;;;;;;2.56;97.37;102931.50;4989866;28;20309;-73
2022/12/02 09:58:25;;;;;;;70.27;32.13;;;;;;;2.57;97.23;102931.63;4984278;28;20272;-74
2022/12/02 10:00:51;;;;;;;72.33;31.23;;;;;;;2.61;97.14;102932.75;4983637;28;20230;-73
2022/12/02 10:03:21;;;;;;;74.47;33.10;;;;;;;2.60;97.60;102931.00;4971917;28;20199;-73
2022/12/02 10:05:47;;;;;;;75.87;32.33;;;;;;;2.58;97.60;102935.91;4989709;28;20912;-73
2022/12/02 10:08:18;;;;;;;76.77;32.63;;;;;;;2.59;97.84;102932.66;4989460;28;20194;-72
2022/12/02 10:10:45;;;;;;;74.50;33.37;;;;;;;2.61;97.23;102930.22;4986561;28;20579;-72
2022/12/02 10:13:17;;;;;;;78.17;33.17;;;;;;;2.67;96.89;102930.78;4982024;28;20788;-71
2022/12/02 10:15:43;;;;;;;69.83;30.30;;;;;;;2.63;97.06;102923.69;4988532;28;20230;-73
2022/12/02 10:18:24;;;;;;;71.20;31.87;;;;;;;2.66;97.25;102923.94;4986390;28;20556;-74
2022/12/02 10:20:49;;;;;;;72.17;30.77;;;;;;;2.71;96.99;102923.56;4986387;28;20234;-72
2022/12/02 10:23:21;;;;;;;70.20;30.93;;;;;;;3.13;98.48;102919.50;4988591;28;20564;-73
2022/12/02 10:26:06;;;;;;;73.77;33.13;;;;;;;3.22;98.64;102915.22;4988248;28;20238;-72
2022/12/02 10:28:35;;;;;;;73.33;31.00;;;;;;;3.24;98.22;102917.88;4989093;28;20183;-72
2022/12/02 10:31:11;;;;;;;71.37;30.67;;;;;;;3.34;97.86;102917.84;4987102;28;20630;-74
2022/12/02 10:33:50;;;;;;;72.93;31.90;;;;;;;3.20;96.05;102913.31;4988599;28;20199;-73
2022/12/02 10:36:41;;;;;;;64.77;30.13;;;;;;;3.01;95.50;102917.63;4993188;28;20207;-74
2022/12/02 10:39:17;;;;;;;67.07;30.97;;;;;;;2.99;94.96;102909.91;4993093;28;20514;-73
2022/12/02 10:41:43;;;;;;;65.93;29.53;;;;;;;2.98;95.61;102913.22;4992747;28;20252;-73
2022/12/02 10:44:15;;;;;;;72.37;31.33;;;;;;;2.94;95.46;102908.66;4992951;28;20198;-74
2022/12/02 10:46:42;;;;;;;64.80;29.73;;;;;;;2.90;95.11;102905.75;5005950;28;20274;-73
2022/12/02 10:49:33;;;;;;;71.83;30.23;;;;;;;2.89;95.09;102906.53;4992818;28;20191;-73
2022/12/02 10:52:06;;;;;;;66.03;29.80;;;;;;;2.93;95.80;102903.44;4988240;28;20250;-73
2022/12/02 10:54:33;;;;;;;63.10;30.30;;;;;;;2.94;95.46;102892.59;4992646;28;20191;-72
2022/12/02 10:57:00;;;;;;;64.53;30.83;;;;;;;2.91;95.22;102905.00;4993041;28;20747;-73
2022/12/02 10:59:26;;;;;;;67.20;30.67;;;;;;;2.92;94.98;102884.00;4991034;28;20186;-72
2022/12/02 11:01:52;;;;;;;72.37;32.60;;;;;;;2.95;95.07;102892.69;4990419;28;20215;-72
2022/12/02 11:04:18;;;;;;;70.47;31.00;;;;;;;2.95;95.40;102891.84;4992912;28;20193;-71
2022/12/02 11:06:44;;;;;;;66.50;30.97;;;;;;;2.98;95.16;102894.59;4991301;28;20211;-72
2022/12/02 11:09:19;;;;;;;64.00;29.70;;;;;;;2.98;95.12;102892.06;4980618;28;20191;-74
2022/12/02 11:11:46;;;;;;;65.13;30.43;;;;;;;3.02;95.67;102883.97;4991118;28;20664;-73
2022/12/02 11:14:39;;;;;;;64.20;29.90;;;;;;;2.97;95.77;102886.16;4977120;28;20223;-73
2022/12/02 11:17:10;;;;;;;64.50;28.43;;;;;;;3.02;95.83;102886.50;4989575;28;20196;-71
2022/12/02 11:19:36;;;;;;;62.03;27.87;;;;;;;2.99;95.08;102883.75;4992798;28;20210;-72
2022/12/02 11:22:03;;;;;;;63.27;28.70;;;;;;;2.98;94.75;102887.91;4992731;28;20672;-72